createdAt,value
2023-10-08T00:01:18.624Z,6.25
2023-10-08T00:03:52.639Z,6.73
2023-10-08T00:06:21.619Z,5.65
2023-10-08T00:08:49.065Z,6.05
2023-10-08T00:11:17.162Z,5.75
2023-10-08T00:13:44.873Z,4.55
2023-10-08T00:16:12.735Z,5.80
2023-10-08T00:18:49.948Z,6.22
2023-10-08T00:21:16.723Z,5.55
2023-10-08T00:23:45.372Z,6.50
2023-10-08T00:26:13.684Z,6.05
2023-10-08T00:28:43.652Z,4.73
2023-10-08T00:31:14.018Z,7.80
2023-10-08T00:33:40.880Z,5.30
2023-10-08T00:36:19.938Z,5.20
2023-10-08T00:38:55.173Z,5.03
2023-10-08T00:41:25.555Z,6.47
2023-10-08T00:43:52.480Z,6.68
2023-10-08T00:46:37.278Z,5.50
2023-10-08T00:49:20.891Z,6.03
2023-10-08T00:51:47.626Z,4.63
2023-10-08T00:54:18.676Z,5.37
2023-10-08T00:56:53.398Z,5.05
2023-10-08T00:59:22.636Z,5.68
2023-10-08T01:01:52.962Z,6.03
2023-10-08T01:04:27.661Z,4.65
2023-10-08T01:07:17.017Z,4.90
2023-10-08T01:09:44.249Z,4.90
2023-10-08T01:12:45.091Z,5.53
2023-10-08T01:15:20.094Z,5.03
2023-10-08T01:17:52.976Z,6.07
2023-10-08T01:20:35.118Z,5.40
2023-10-08T01:23:21.651Z,5.38
2023-10-08T01:26:03.539Z,5.38
2023-10-08T01:28:30.648Z,5.15
2023-10-08T01:31:01.463Z,5.40
2023-10-08T01:33:32.479Z,5.73
2023-10-08T01:36:04.668Z,6.00
2023-10-08T01:38:32.277Z,6.70
2023-10-08T01:41:04.265Z,5.95
2023-10-08T01:43:30.960Z,4.13
2023-10-08T01:45:57.662Z,5.77
2023-10-08T01:48:29.448Z,4.82
2023-10-08T01:50:57.197Z,6.43
2023-10-08T01:53:23.950Z,4.88
2023-10-08T01:55:50.701Z,6.93
2023-10-08T01:58:17.874Z,5.73
2023-10-08T02:00:47.718Z,3.95
2023-10-08T02:03:17.600Z,5.72
2023-10-08T02:05:45.046Z,5.53
2023-10-08T02:08:12.316Z,4.85
2023-10-08T02:10:41.090Z,6.50
2023-10-08T02:13:09.826Z,5.78
2023-10-08T02:15:45.126Z,5.45
2023-10-08T02:18:12.155Z,6.05
2023-10-08T02:20:42.785Z,5.05
2023-10-08T02:23:09.761Z,5.30
2023-10-08T02:25:36.613Z,5.63
2023-10-08T02:28:04.561Z,6.60
2023-10-08T02:30:31.358Z,6.05
2023-10-08T02:32:59.759Z,5.25
2023-10-08T02:35:28.650Z,6.47
2023-10-08T02:37:56.064Z,6.00
2023-10-08T02:40:28.750Z,6.38
2023-10-08T02:43:01.765Z,5.22
2023-10-08T02:45:28.943Z,6.63
2023-10-08T02:47:56.496Z,5.43
2023-10-08T02:50:24.425Z,6.10
2023-10-08T02:52:51.185Z,5.68
2023-10-08T02:55:35.688Z,6.72
2023-10-08T02:58:06.056Z,6.97
2023-10-08T03:00:36.068Z,8.23
2023-10-08T03:03:10.796Z,5.22
2023-10-08T03:05:38.115Z,5.00
2023-10-08T03:08:12.247Z,5.53
2023-10-08T03:10:39.619Z,4.60
2023-10-08T03:13:06.945Z,5.10
2023-10-08T03:16:03.063Z,5.60
2023-10-08T03:18:37.529Z,6.53
2023-10-08T03:21:06.193Z,6.68
2023-10-08T03:23:37.130Z,5.78
2023-10-08T03:26:12.055Z,6.47
2023-10-08T03:28:42.287Z,7.18
2023-10-08T03:31:16.400Z,6.20
2023-10-08T03:33:44.526Z,3.90
2023-10-08T03:36:23.921Z,5.90
2023-10-08T03:38:53.974Z,6.30
2023-10-08T03:41:29.464Z,5.85
2023-10-08T03:44:03.212Z,5.95
2023-10-08T03:46:30.834Z,4.43
2023-10-08T03:48:58.866Z,6.72
2023-10-08T03:51:28.828Z,7.27
2023-10-08T03:54:10.671Z,7.82
2023-10-08T03:56:42.439Z,5.20
2023-10-08T03:59:14.661Z,6.13
2023-10-08T04:01:45.319Z,4.95
2023-10-08T04:04:15.460Z,5.10
2023-10-08T04:06:55.430Z,5.75
2023-10-08T04:09:22.128Z,5.65
2023-10-08T04:11:59.157Z,6.18
2023-10-08T04:14:26.982Z,4.60
2023-10-08T04:16:53.896Z,4.47
2023-10-08T04:19:22.347Z,5.70
2023-10-08T04:21:55.241Z,6.63
2023-10-08T04:24:29.371Z,4.10
2023-10-08T04:27:00.128Z,5.15
2023-10-08T04:29:27.919Z,5.67
2023-10-08T04:32:08.957Z,5.40
2023-10-08T04:34:36.503Z,7.28
2023-10-08T04:37:05.022Z,6.35
2023-10-08T04:39:34.401Z,5.82
2023-10-08T04:42:09.736Z,4.97
2023-10-08T04:44:39.894Z,6.75
2023-10-08T04:47:08.398Z,7.60
2023-10-08T04:49:35.634Z,5.30
2023-10-08T04:52:15.658Z,6.35
2023-10-08T04:54:52.281Z,4.17
2023-10-08T04:57:23.211Z,4.80
2023-10-08T04:59:51.483Z,5.60
2023-10-08T05:02:23.465Z,10.00
2023-10-08T05:04:54.260Z,5.43
2023-10-08T05:07:39.703Z,5.60
2023-10-08T05:10:06.897Z,5.82
2023-10-08T05:12:33.684Z,10.70
2023-10-08T05:15:15.761Z,7.95
2023-10-08T05:17:51.945Z,5.55
2023-10-08T05:20:37.914Z,9.30
2023-10-08T05:23:29.986Z,7.40
2023-10-08T05:26:00.767Z,6.15
2023-10-08T05:28:27.496Z,6.32
2023-10-08T05:31:12.895Z,6.38
2023-10-08T05:33:58.108Z,5.20
2023-10-08T05:36:51.475Z,5.70
2023-10-08T05:39:36.678Z,7.93
2023-10-08T05:42:21.426Z,7.15
2023-10-08T05:45:08.287Z,4.82
2023-10-08T05:47:35.321Z,6.43
2023-10-08T05:50:17.827Z,7.93
2023-10-08T05:53:00.213Z,4.82
2023-10-08T05:55:27.509Z,6.30
2023-10-08T05:58:33.590Z,6.38
2023-10-08T06:01:08.803Z,4.90
2023-10-08T06:03:40.886Z,5.43
2023-10-08T06:06:29.074Z,7.47
2023-10-08T06:09:22.571Z,7.00
2023-10-08T06:12:10.788Z,6.28
2023-10-08T06:14:53.846Z,5.70
2023-10-08T06:17:46.021Z,5.45
2023-10-08T06:20:17.899Z,4.88
2023-10-08T06:22:45.011Z,5.50
2023-10-08T06:25:24.174Z,6.55
2023-10-08T06:27:56.738Z,5.83
2023-10-08T06:30:25.922Z,7.45
2023-10-08T06:32:55.150Z,5.38
2023-10-08T06:35:26.418Z,7.18
2023-10-08T06:37:56.196Z,6.00
2023-10-08T06:40:41.952Z,8.50
2023-10-08T06:43:25.557Z,4.03
2023-10-08T06:45:59.197Z,5.60
2023-10-08T06:48:26.202Z,7.32
2023-10-08T06:50:58.098Z,5.90
2023-10-08T06:53:25.614Z,5.85
2023-10-08T06:55:58.295Z,7.57
2023-10-08T06:58:25.693Z,5.68
2023-10-08T07:00:53.237Z,6.15
2023-10-08T07:03:20.174Z,5.90
2023-10-08T07:06:03.385Z,6.10
2023-10-08T07:08:36.673Z,6.17
2023-10-08T07:11:08.103Z,6.20
2023-10-08T07:13:37.254Z,5.93
2023-10-08T07:16:05.452Z,5.15
2023-10-08T07:18:35.350Z,8.23
2023-10-08T07:21:05.668Z,7.90
2023-10-08T07:23:35.977Z,6.32
2023-10-08T07:26:12.885Z,6.82
2023-10-08T07:28:41.228Z,6.55
2023-10-08T07:31:17.743Z,6.25
2023-10-08T07:33:45.152Z,8.23
2023-10-08T07:36:15.533Z,10.15
2023-10-08T07:38:46.114Z,8.27
2023-10-08T07:41:15.829Z,5.35
2023-10-08T07:43:45.389Z,5.88
2023-10-08T07:46:12.131Z,6.78
2023-10-08T07:48:44.016Z,6.30
2023-10-08T07:51:10.833Z,8.85
2023-10-08T07:53:42.067Z,7.00
2023-10-08T07:56:09.596Z,8.30
2023-10-08T07:58:39.606Z,6.82
2023-10-08T08:01:07.746Z,7.27
2023-10-08T08:03:37.741Z,7.67
2023-10-08T08:06:07.356Z,6.10
2023-10-08T08:08:35.001Z,8.50
2023-10-08T08:11:22.019Z,5.03
2023-10-08T08:13:49.765Z,7.00
2023-10-08T08:16:19.875Z,6.60
2023-10-08T08:18:51.830Z,7.57
2023-10-08T08:21:20.849Z,5.18
2023-10-08T08:23:51.262Z,7.13
2023-10-08T08:26:27.922Z,7.38
2023-10-08T08:28:55.712Z,5.82
2023-10-08T08:31:22.588Z,7.67
2023-10-08T08:33:58.118Z,7.07
2023-10-08T08:36:25.177Z,8.27
2023-10-08T08:38:51.995Z,6.60
2023-10-08T08:41:21.983Z,7.22
2023-10-08T08:43:50.535Z,6.37
2023-10-08T08:46:17.306Z,8.47
2023-10-08T08:48:47.790Z,7.25
2023-10-08T08:51:14.675Z,5.97
2023-10-08T08:53:42.397Z,8.40
2023-10-08T08:56:13.840Z,6.60
2023-10-08T08:58:42.439Z,7.40
2023-10-08T09:01:10.838Z,5.80
2023-10-08T09:03:38.604Z,6.72
2023-10-08T09:06:05.771Z,10.52
2023-10-08T09:08:36.469Z,8.43
2023-10-08T09:11:05.273Z,6.27
2023-10-08T09:13:32.826Z,6.63
2023-10-08T09:16:05.269Z,6.15
2023-10-08T09:18:33.516Z,6.07
2023-10-08T09:21:13.301Z,6.30
2023-10-08T09:23:44.535Z,7.40
2023-10-08T09:26:14.929Z,7.17
2023-10-08T09:28:47.617Z,6.93
2023-10-08T09:31:14.929Z,6.43
2023-10-08T09:33:42.854Z,6.25
2023-10-08T09:36:11.749Z,5.55
2023-10-08T09:38:38.674Z,5.83
2023-10-08T09:41:05.540Z,6.18
2023-10-08T09:43:36.326Z,6.07
2023-10-08T09:46:21.235Z,7.28
2023-10-08T09:48:54.245Z,9.13
2023-10-08T09:51:21.260Z,6.27
2023-10-08T09:54:15.376Z,8.65
2023-10-08T09:56:44.474Z,5.53
2023-10-08T09:59:11.260Z,8.45
2023-10-08T10:01:39.198Z,6.22
2023-10-08T10:04:25.815Z,10.43
2023-10-08T10:06:53.671Z,8.75
2023-10-08T10:09:24.255Z,5.82
2023-10-08T10:11:51.599Z,7.05
2023-10-08T10:14:18.979Z,6.65
2023-10-08T10:17:10.263Z,5.50
2023-10-08T10:19:37.324Z,6.25
2023-10-08T10:22:04.551Z,5.85
2023-10-08T10:24:36.488Z,5.10
2023-10-08T10:27:15.646Z,5.50
2023-10-08T10:29:46.522Z,4.70
2023-10-08T10:32:16.235Z,5.47
2023-10-08T10:34:44.271Z,6.15
2023-10-08T10:37:20.274Z,5.22
2023-10-08T10:40:01.125Z,5.82
2023-10-08T10:42:29.569Z,6.23
2023-10-08T10:44:57.757Z,4.65
2023-10-08T10:47:27.741Z,4.25
2023-10-08T10:50:15.403Z,4.03
2023-10-08T10:52:54.396Z,3.13
2023-10-08T10:55:32.641Z,2.23
2023-10-08T10:58:12.522Z,3.17
2023-10-08T11:00:43.024Z,2.30
2023-10-08T11:03:19.449Z,2.15
2023-10-08T11:05:49.782Z,3.78
2023-10-08T11:08:19.509Z,3.93
2023-10-08T11:10:51.842Z,1.90
2023-10-08T11:13:22.450Z,2.38
2023-10-08T11:15:52.845Z,2.05
2023-10-08T11:18:21.858Z,2.90
2023-10-08T11:20:55.333Z,2.30
2023-10-08T11:23:42.707Z,2.15
2023-10-08T11:26:09.525Z,2.17
2023-10-08T11:28:42.931Z,1.75
2023-10-08T11:31:15.548Z,1.80
2023-10-08T11:33:43.111Z,1.33
2023-10-08T11:36:19.803Z,2.15
2023-10-08T11:38:51.828Z,2.55
2023-10-08T11:41:22.017Z,1.35
2023-10-08T11:43:57.913Z,1.27
2023-10-08T11:46:39.797Z,1.10
2023-10-08T11:49:06.850Z,1.42
2023-10-08T11:51:36.745Z,1.60
2023-10-08T11:54:03.678Z,1.73
2023-10-08T11:56:30.635Z,1.60
2023-10-08T11:58:58.288Z,1.30
2023-10-08T12:01:25.652Z,4.47
2023-10-08T12:03:52.918Z,1.90
2023-10-08T12:06:20.789Z,1.20
2023-10-08T12:08:47.974Z,1.15
2023-10-08T12:11:15.180Z,1.50
2023-10-08T12:13:45.492Z,1.30
2023-10-08T12:16:19.634Z,1.60
2023-10-08T12:18:49.965Z,1.60
2023-10-08T12:21:17.280Z,1.73
2023-10-08T12:23:44.639Z,1.20
2023-10-08T12:26:16.916Z,1.50
2023-10-08T12:28:47.621Z,2.97
2023-10-08T12:31:17.076Z,1.90
2023-10-08T12:33:47.188Z,3.05
2023-10-08T12:36:14.295Z,1.13
2023-10-08T12:38:44.951Z,1.48
2023-10-08T12:41:14.628Z,1.30
2023-10-08T12:43:53.933Z,1.40
2023-10-08T12:46:25.775Z,1.65
2023-10-08T12:48:56.700Z,2.63
2023-10-08T12:51:26.855Z,1.10
2023-10-08T12:54:00.751Z,1.35
2023-10-08T12:56:36.951Z,1.40
2023-10-08T12:59:07.924Z,1.10
2023-10-08T13:01:42.750Z,1.43
2023-10-08T13:04:17.448Z,1.35
2023-10-08T13:06:47.001Z,1.92
2023-10-08T13:09:14.800Z,0.90
2023-10-08T13:11:41.904Z,1.73
2023-10-08T13:14:09.632Z,1.53
2023-10-08T13:16:38.886Z,1.40
2023-10-08T13:19:09.682Z,2.17
2023-10-08T13:21:38.610Z,4.45
2023-10-08T13:24:10.669Z,3.30
2023-10-08T13:26:40.583Z,2.20
2023-10-08T13:29:11.132Z,1.63
2023-10-08T13:31:39.014Z,1.38
2023-10-08T13:34:10.255Z,2.67
2023-10-08T13:36:41.293Z,3.25
2023-10-08T13:39:11.709Z,2.07
2023-10-08T13:41:43.278Z,2.75
2023-10-08T13:44:11.230Z,1.83
2023-10-08T13:46:42.220Z,1.67
2023-10-08T13:49:11.741Z,4.15
2023-10-08T13:51:40.333Z,2.30
2023-10-08T13:54:11.043Z,1.45
2023-10-08T13:56:49.068Z,2.53
2023-10-08T13:59:17.657Z,1.95
2023-10-08T14:01:53.784Z,2.15
2023-10-08T14:04:22.069Z,1.40
2023-10-08T14:06:54.006Z,1.40
2023-10-08T14:09:22.852Z,1.85
2023-10-08T14:11:54.577Z,2.13
2023-10-08T14:14:25.906Z,2.33
2023-10-08T14:16:55.313Z,1.60
2023-10-08T14:19:30.203Z,1.52
2023-10-08T14:22:09.496Z,2.83
2023-10-08T14:24:39.652Z,2.45
2023-10-08T14:27:17.123Z,2.70
2023-10-08T14:29:45.727Z,1.57
2023-10-08T14:32:13.454Z,2.10
2023-10-08T14:34:56.419Z,3.20
2023-10-08T14:37:42.891Z,2.60
2023-10-08T14:40:29.295Z,2.08
2023-10-08T14:42:59.796Z,2.13
2023-10-08T14:45:32.781Z,3.08
2023-10-08T14:48:01.196Z,2.58
2023-10-08T14:50:29.554Z,3.17
2023-10-08T14:52:57.672Z,2.92
2023-10-08T14:55:25.312Z,2.47
2023-10-08T14:57:56.153Z,1.83
2023-10-08T15:00:28.022Z,2.85
2023-10-08T15:02:56.092Z,2.28
2023-10-08T15:05:24.293Z,2.78
2023-10-08T15:07:53.073Z,4.23
2023-10-08T15:10:20.677Z,1.70
2023-10-08T15:12:50.110Z,2.25
2023-10-08T15:15:19.245Z,2.60
2023-10-08T15:17:48.120Z,3.70
2023-10-08T15:20:18.168Z,1.73
2023-10-08T15:22:46.363Z,2.88
2023-10-08T15:25:14.773Z,3.30
2023-10-08T15:27:42.637Z,2.05
2023-10-08T15:30:13.875Z,3.08
2023-10-08T15:32:42.031Z,4.67
2023-10-08T15:35:10.607Z,3.55
2023-10-08T15:37:39.112Z,5.18
2023-10-08T15:40:07.648Z,4.03
2023-10-08T15:42:39.168Z,4.78
2023-10-08T15:45:07.183Z,3.43
2023-10-08T15:47:34.934Z,3.28
2023-10-08T15:50:02.931Z,2.95
2023-10-08T15:52:32.917Z,3.72
2023-10-08T15:55:00.698Z,3.83
2023-10-08T15:57:28.226Z,3.67
2023-10-08T15:59:55.775Z,4.57
2023-10-08T16:02:23.283Z,6.30
2023-10-08T16:04:51.247Z,7.60
2023-10-08T16:07:19.455Z,6.00
2023-10-08T16:09:47.283Z,6.83
2023-10-08T16:12:14.994Z,5.28
2023-10-08T16:14:42.854Z,4.40
2023-10-08T16:17:15.282Z,6.13
2023-10-08T16:19:44.555Z,6.13
2023-10-08T16:22:12.163Z,6.97
2023-10-08T16:24:40.368Z,4.70
2023-10-08T16:27:09.638Z,4.85
2023-10-08T16:29:40.642Z,4.65
2023-10-08T16:32:09.553Z,5.43
2023-10-08T16:34:39.557Z,4.17
2023-10-08T16:37:07.981Z,6.68
2023-10-08T16:39:35.774Z,5.10
2023-10-08T16:42:07.134Z,5.25
2023-10-08T16:44:34.980Z,5.78
2023-10-08T16:47:02.837Z,5.80
2023-10-08T16:49:31.077Z,5.88
2023-10-08T16:52:01.502Z,3.72
2023-10-08T16:54:29.069Z,5.32
2023-10-08T16:56:57.148Z,4.00
2023-10-08T16:59:26.013Z,4.80
2023-10-08T17:01:53.765Z,5.78
2023-10-08T17:04:22.143Z,4.53
2023-10-08T17:06:49.784Z,4.32
2023-10-08T17:09:18.471Z,3.22
2023-10-08T17:11:50.342Z,4.20
2023-10-08T17:14:19.663Z,5.15
2023-10-08T17:16:47.666Z,3.70
2023-10-08T17:19:20.405Z,7.32
2023-10-08T17:21:50.855Z,6.28
2023-10-08T17:24:20.149Z,4.63
2023-10-08T17:27:04.019Z,5.50
2023-10-08T17:29:37.465Z,4.10
2023-10-08T17:32:05.427Z,5.15
2023-10-08T17:34:33.945Z,3.80
2023-10-08T17:37:02.075Z,3.43
2023-10-08T17:39:30.770Z,4.57
2023-10-08T17:41:58.826Z,3.50
2023-10-08T17:44:29.521Z,4.72
2023-10-08T17:46:58.231Z,4.20
2023-10-08T17:49:25.953Z,4.57
2023-10-08T17:51:54.888Z,4.18
2023-10-08T17:54:24.836Z,4.63
2023-10-08T17:56:53.329Z,3.60
2023-10-08T17:59:24.737Z,4.35
2023-10-08T18:01:53.526Z,4.63
2023-10-08T18:04:25.102Z,5.20
2023-10-08T18:06:53.679Z,5.15
2023-10-08T18:09:22.252Z,4.93
2023-10-08T18:11:50.606Z,4.07
2023-10-08T18:14:20.034Z,4.63
2023-10-08T18:16:48.263Z,4.32
2023-10-08T18:19:16.912Z,5.60
2023-10-08T18:21:45.921Z,6.32
2023-10-08T18:24:14.868Z,4.43
2023-10-08T18:26:46.605Z,5.50
2023-10-08T18:29:17.904Z,4.20
2023-10-08T18:31:46.890Z,3.83
2023-10-08T18:34:16.045Z,3.85
2023-10-08T18:36:44.285Z,4.47
2023-10-08T18:39:18.379Z,4.53
2023-10-08T18:41:47.617Z,3.25
2023-10-08T18:44:18.768Z,4.05
2023-10-08T18:46:47.573Z,3.55
2023-10-08T18:49:20.422Z,3.50
2023-10-08T18:51:55.761Z,4.33
2023-10-08T18:54:30.122Z,3.90
2023-10-08T18:57:01.227Z,3.85
2023-10-08T18:59:29.278Z,2.85
2023-10-08T19:01:58.758Z,3.80
2023-10-08T19:04:27.452Z,5.10
2023-10-08T19:06:58.624Z,3.58
2023-10-08T19:09:27.433Z,4.00
2023-10-08T19:11:56.879Z,4.70
2023-10-08T19:14:25.873Z,4.78
2023-10-08T19:16:54.561Z,3.30
2023-10-08T19:19:29.382Z,5.25
2023-10-08T19:21:59.121Z,3.55
2023-10-08T19:24:28.766Z,3.78
2023-10-08T19:26:57.479Z,4.07
2023-10-08T19:29:27.139Z,3.60
2023-10-08T19:31:55.642Z,4.18
2023-10-08T19:34:24.651Z,3.72
2023-10-08T19:36:53.049Z,3.88
2023-10-08T19:39:24.362Z,3.65
2023-10-08T19:41:53.798Z,2.80
2023-10-08T19:44:22.082Z,2.30
2023-10-08T19:46:49.757Z,3.92
2023-10-08T19:49:19.447Z,3.53
2023-10-08T19:51:47.769Z,3.63
2023-10-08T19:54:19.269Z,3.37
2023-10-08T19:56:47.811Z,3.47
2023-10-08T19:59:17.722Z,2.33
2023-10-08T20:01:45.998Z,3.22
2023-10-08T20:04:16.088Z,3.63
2023-10-08T20:06:45.024Z,3.00
2023-10-08T20:09:12.369Z,2.50
2023-10-08T20:11:40.202Z,3.53
2023-10-08T20:14:09.345Z,2.92
2023-10-08T20:16:37.393Z,3.60
2023-10-08T20:19:06.549Z,4.60
2023-10-08T20:21:34.106Z,3.28
2023-10-08T20:24:02.046Z,3.45
2023-10-08T20:26:31.234Z,3.53
2023-10-08T20:28:59.137Z,2.80
2023-10-08T20:31:26.780Z,3.10
2023-10-08T20:33:54.520Z,5.13
2023-10-08T20:36:22.677Z,2.67
2023-10-08T20:38:50.768Z,2.65
2023-10-08T20:41:18.187Z,2.88
2023-10-08T20:43:45.508Z,2.43
2023-10-08T20:46:17.057Z,5.32
2023-10-08T20:48:45.684Z,3.75
2023-10-08T20:51:13.865Z,2.72
2023-10-08T20:53:40.694Z,3.67
2023-10-08T20:56:07.966Z,2.50
2023-10-08T20:58:34.765Z,3.30
2023-10-08T21:01:02.574Z,3.15
2023-10-08T21:03:29.570Z,3.65
2023-10-08T21:05:57.130Z,6.00
2023-10-08T21:08:23.878Z,2.67
2023-10-08T21:13:20.234Z,3.75
2023-10-08T21:15:48.412Z,3.80
2023-10-08T21:18:15.249Z,2.42
2023-10-08T21:20:44.007Z,3.53
2023-10-08T21:23:10.763Z,3.20
2023-10-08T21:25:39.234Z,3.42
2023-10-08T21:28:06.049Z,3.67
2023-10-08T21:30:33.233Z,3.17
2023-10-08T21:33:01.502Z,3.20
2023-10-08T21:35:29.301Z,3.13
2023-10-08T21:37:56.124Z,3.17
2023-10-08T21:40:22.941Z,2.58
2023-10-08T21:42:50.842Z,3.97
2023-10-08T21:45:20.606Z,5.47
2023-10-08T21:47:48.344Z,3.35
2023-10-08T21:50:17.404Z,3.00
2023-10-08T21:52:46.090Z,2.15
2023-10-08T21:55:13.163Z,2.90
2023-10-08T21:57:40.723Z,1.53
2023-10-08T22:00:24.835Z,2.90
2023-10-08T22:03:02.703Z,3.85
2023-10-08T22:05:30.986Z,2.75
2023-10-08T22:08:05.046Z,2.25
2023-10-08T22:10:34.798Z,2.53
2023-10-08T22:13:05.084Z,2.75
2023-10-08T22:15:32.051Z,2.95
2023-10-08T22:18:03.306Z,2.75
2023-10-08T22:20:39.765Z,3.95
2023-10-08T22:23:08.928Z,2.20
2023-10-08T22:25:37.862Z,3.13
2023-10-08T22:28:12.637Z,2.45
2023-10-08T22:30:43.447Z,4.80
2023-10-08T22:33:11.832Z,2.97
2023-10-08T22:35:44.109Z,2.77
2023-10-08T22:38:16.570Z,3.45
2023-10-08T22:40:50.076Z,3.97
2023-10-08T22:43:17.264Z,2.05
2023-10-08T22:45:52.002Z,3.33
2023-10-08T22:48:34.602Z,3.77
2023-10-08T22:51:04.152Z,2.38
2023-10-08T22:53:31.974Z,2.85
2023-10-08T22:56:01.782Z,3.80
2023-10-08T22:58:30.478Z,2.75
2023-10-08T23:00:58.618Z,3.83
2023-10-08T23:03:26.537Z,3.50
2023-10-08T23:05:53.600Z,3.28
2023-10-08T23:08:21.860Z,3.05
2023-10-08T23:10:48.877Z,7.53
2023-10-08T23:13:16.319Z,3.23
2023-10-08T23:15:44.572Z,4.15
2023-10-08T23:18:14.458Z,4.30
2023-10-08T23:20:45.483Z,3.65
2023-10-08T23:23:12.553Z,4.07
2023-10-08T23:25:39.765Z,3.93
2023-10-08T23:28:06.594Z,1.88
2023-10-08T23:30:34.021Z,3.35
2023-10-08T23:33:01.831Z,4.22
2023-10-08T23:35:28.771Z,2.97
2023-10-08T23:38:07.398Z,3.13
2023-10-08T23:40:35.092Z,3.25
2023-10-08T23:43:01.938Z,3.05
2023-10-08T23:45:29.578Z,3.75
2023-10-08T23:47:56.856Z,2.65
2023-10-08T23:50:33.524Z,4.73
2023-10-08T23:53:04.075Z,4.97
2023-10-08T23:55:31.921Z,5.20
2023-10-08T23:58:08.889Z,4.85
